St Petersburg Clearwater International Airport
KPIE : rendu visible

Aérodrome :











RETROUVEZ-NOUS SUR...

 
LOGIN :

S'inscrire | Disclaimer

   EN    FR    IT 

 









Légende :    VFR   VFR Marginal   IFR   IFR Intensif   IFR Très Intensif
Visi : 
Plafond : 
>= 8 km
>= 3000ft
5 à 8 km
1000 à 3000 ft
1500m à 5 km
500 à 1000 ft
800 à 1500m
200 à 500 ft
< 800m
< 200 ft
Symboles :   Orages  Brouillard  Fortes neiges  Fortes précipitations  Vent > 20 kt






- Altitude de l'aérodrome : 11 ft
- Code IATA : PIE


KPIE - St Petersburg Clearwater International

DERNIER METAR :
  • 081053Z 21004KT 10SM CLR 20/18 A2996 RMK AO2 RAB31E45 SLP145 P0000 T02000183

METARs EXPIRÉS :
  • 081034Z 19004KT 10SM -RA CLR 20/19 A2996 RMK AO2 RAB31 P0000 T02000189
  • 081025Z 18003KT 1 1/2SM BR CLR 20/18 A2996 RMK AO2 T02000183
  • 080953Z AUTO 16004KT 6SM BR CLR 21/19 A2996 RMK AO2 SLP144 T02060189
  • 080853Z AUTO 29003KT 10SM CLR 22/20 A2996 RMK AO2 SLP144 T02170200 56013

TAF KPIE
Valide du 08 à 12h jusqu'au 09 à 12h UTC


081120Z 0812/0912 23004KT P6SM FEW008 SCT035
TEMPO 0812/0813 6SM BR BKN008
FM081400 28008KT P6SM SCT030 SCT250
FM081800 28012KT P6SM FEW040 FEW250
FM090200 26008KT P6SM FEW030 SCT250



MET'MAP, la Météo Aéronautique d'un coup d'oeil ! - Copyright ORBIFLY Décembre 2007 - Disclaimer

ORBIFLY MET'MAP TEAM :

Programmation & Développement : Alexandra Zaïnal
Sur une idée originale de : Baudouin d'Aumeries
Assistance à la programmation : Marc-Olivier Méhu
Soutien technique & logistique : Manuel Goepfert

Contact : metmap@orbifly.com




SOURCES & CREDITS :

   NOAA       Earth
Advisory